createdAt,value
2019-05-11T00:00:29.573Z,99.90
2019-05-11T00:03:41.839Z,99.90
2019-05-11T00:06:17.186Z,99.90
2019-05-11T00:08:48.166Z,99.90
2019-05-11T00:11:21.495Z,99.90
2019-05-11T00:13:57.119Z,99.90
2019-05-11T00:16:35.495Z,99.90
2019-05-11T00:19:09.422Z,99.90
2019-05-11T00:21:39.901Z,99.90
2019-05-11T00:24:11.939Z,99.90
2019-05-11T00:26:42.399Z,99.90
2019-05-11T00:29:16.225Z,99.90
2019-05-11T00:31:47.527Z,99.90
2019-05-11T00:34:18.689Z,99.90
2019-05-11T00:37:10.189Z,99.90
2019-05-11T00:39:44.564Z,99.90
2019-05-11T00:42:19.039Z,99.90
2019-05-11T00:44:49.615Z,99.90
2019-05-11T00:47:31.448Z,99.90
2019-05-11T00:50:03.467Z,99.90
2019-05-11T00:52:37.496Z,99.90
2019-05-11T00:55:15.378Z,99.90
2019-05-11T00:57:45.454Z,99.90
2019-05-11T01:00:29.487Z,99.90
2019-05-11T01:03:01.454Z,99.90
2019-05-11T01:05:32.777Z,99.90
2019-05-11T01:08:04.299Z,99.90
2019-05-11T01:10:42.505Z,99.90
2019-05-11T01:13:13.808Z,99.90
2019-05-11T01:15:44.179Z,99.90
2019-05-11T01:18:14.624Z,99.90
2019-05-11T01:20:44.922Z,99.90
2019-05-11T01:23:17.471Z,99.90
2019-05-11T01:25:49.034Z,99.90
2019-05-11T01:28:36.864Z,99.90
2019-05-11T01:31:17.635Z,99.90
2019-05-11T01:33:51.726Z,99.90
2019-05-11T01:36:21.765Z,99.90
2019-05-11T01:38:52.115Z,99.90
2019-05-11T01:41:22.313Z,99.90
2019-05-11T01:43:58.171Z,99.90
2019-05-11T01:46:28.162Z,99.90
2019-05-11T01:48:58.607Z,99.90
2019-05-11T01:51:36.271Z,99.90
2019-05-11T01:54:06.772Z,99.90
2019-05-11T01:56:38.576Z,99.90
2019-05-11T01:59:08.893Z,99.90
2019-05-11T02:01:43.683Z,99.90
2019-05-11T02:04:23.184Z,99.90
2019-05-11T02:07:04.040Z,99.90
2019-05-11T02:09:34.288Z,99.90
2019-05-11T02:12:05.345Z,99.90
2019-05-11T02:14:35.545Z,99.90
2019-05-11T02:17:07.305Z,99.90
2019-05-11T02:19:40.263Z,99.90
2019-05-11T02:22:10.048Z,99.90
2019-05-11T02:24:39.765Z,99.90
2019-05-11T02:27:11.141Z,99.90
2019-05-11T02:29:41.804Z,99.90
2019-05-11T02:32:11.885Z,99.90
2019-05-11T02:34:45.829Z,99.90
2019-05-11T02:37:17.759Z,99.90
2019-05-11T02:39:49.470Z,99.90
2019-05-11T02:42:21.612Z,99.90
2019-05-11T02:44:54.219Z,99.90
2019-05-11T02:47:24.367Z,99.90
2019-05-11T02:49:54.374Z,99.90
2019-05-11T02:52:24.935Z,99.90
2019-05-11T02:54:55.660Z,99.90
2019-05-11T02:57:25.579Z,99.90
2019-05-11T02:59:55.629Z,99.90
2019-05-11T03:02:25.529Z,99.90
2019-05-11T03:04:55.624Z,99.90
2019-05-11T03:07:25.536Z,99.90
2019-05-11T03:09:56.070Z,99.90
2019-05-11T03:12:28.160Z,99.90
2019-05-11T03:14:59.251Z,99.90
2019-05-11T03:17:32.451Z,99.90
2019-05-11T03:20:02.385Z,99.90
2019-05-11T03:22:32.506Z,99.90
2019-05-11T03:25:04.024Z,99.90
2019-05-11T03:27:37.368Z,99.90
2019-05-11T03:30:09.580Z,99.90
2019-05-11T03:32:42.484Z,99.90
2019-05-11T03:35:14.725Z,99.90
2019-05-11T03:37:45.107Z,99.90
2019-05-11T03:40:16.149Z,99.90
2019-05-11T03:42:47.773Z,99.90
2019-05-11T03:45:18.939Z,99.90
2019-05-11T03:47:48.802Z,99.90
2019-05-11T03:50:21.107Z,99.90
2019-05-11T03:52:50.977Z,99.90
2019-05-11T03:55:21.002Z,99.90
2019-05-11T03:57:51.177Z,99.90
2019-05-11T04:00:22.383Z,99.90
2019-05-11T04:02:52.736Z,99.90
2019-05-11T04:05:22.640Z,99.90
2019-05-11T04:07:53.180Z,99.90
2019-05-11T04:10:25.382Z,99.90
2019-05-11T04:12:55.045Z,99.90
2019-05-11T04:15:25.103Z,99.90
2019-05-11T04:17:58.243Z,99.90
2019-05-11T04:20:28.637Z,99.90
2019-05-11T04:22:59.059Z,99.90
2019-05-11T04:25:28.912Z,99.90
2019-05-11T04:27:58.827Z,99.90
2019-05-11T04:30:28.896Z,99.90
2019-05-11T04:32:58.756Z,99.90
2019-05-11T04:35:28.887Z,99.90
2019-05-11T04:37:58.874Z,99.90
2019-05-11T04:40:28.813Z,99.90
2019-05-11T04:42:58.879Z,99.90
2019-05-11T04:45:29.758Z,99.90
2019-05-11T04:47:59.821Z,99.90
2019-05-11T04:50:34.974Z,99.90
2019-05-11T04:53:05.304Z,99.90
2019-05-11T04:55:36.559Z,99.90
2019-05-11T04:58:06.466Z,99.90
2019-05-11T05:00:39.485Z,99.90
2019-05-11T05:03:10.963Z,99.90
2019-05-11T05:05:40.988Z,99.90
2019-05-11T05:08:10.917Z,99.90
2019-05-11T05:10:40.729Z,99.90
2019-05-11T05:13:12.815Z,99.90
2019-05-11T05:15:48.894Z,99.90
2019-05-11T05:18:19.255Z,99.90
2019-05-11T05:20:52.187Z,99.90
2019-05-11T05:23:22.194Z,99.90
2019-05-11T05:25:54.523Z,99.90
2019-05-11T05:28:26.356Z,99.90
2019-05-11T05:30:56.468Z,99.90
2019-05-11T05:33:26.461Z,99.90
2019-05-11T05:35:56.803Z,99.90
2019-05-11T05:38:27.247Z,99.90
2019-05-11T05:40:57.326Z,99.90
2019-05-11T05:43:28.599Z,99.90
2019-05-11T05:45:59.136Z,99.90
2019-05-11T05:48:29.324Z,99.90
2019-05-11T05:50:59.480Z,99.90
2019-05-11T05:53:29.801Z,99.90
2019-05-11T05:56:01.461Z,99.90
2019-05-11T05:58:31.519Z,99.90
2019-05-11T06:01:01.899Z,99.90
2019-05-11T06:03:31.994Z,99.90
2019-05-11T06:06:02.242Z,99.90
2019-05-11T06:08:32.159Z,99.90
2019-05-11T06:11:05.066Z,99.90
2019-05-11T06:13:45.124Z,99.90
2019-05-11T06:16:10.790Z,99.90
2019-05-11T06:18:42.960Z,99.90
2019-05-11T06:21:12.796Z,99.90
2019-05-11T06:23:42.786Z,99.90
2019-05-11T06:26:15.179Z,99.90
2019-05-11T06:28:44.994Z,99.90
2019-05-11T06:31:26.810Z,99.90
2019-05-11T06:34:11.162Z,99.90
2019-05-11T06:36:41.182Z,99.90
2019-05-11T06:39:14.143Z,99.90
2019-05-11T06:41:44.838Z,99.90
2019-05-11T06:44:15.215Z,99.90
2019-05-11T06:46:48.494Z,99.90
2019-05-11T06:49:18.310Z,99.90
2019-05-11T06:51:49.375Z,99.90
2019-05-11T06:54:26.816Z,99.90
2019-05-11T06:56:57.363Z,99.90
2019-05-11T06:59:28.787Z,99.90
2019-05-11T07:02:06.458Z,99.90
2019-05-11T07:04:37.692Z,99.90
2019-05-11T07:07:07.883Z,99.90
2019-05-11T07:09:38.456Z,99.90
2019-05-11T07:12:11.430Z,99.90
2019-05-11T07:14:45.022Z,99.90
2019-05-11T07:17:15.320Z,99.90
2019-05-11T07:19:47.593Z,99.90
2019-05-11T07:22:18.170Z,99.90
2019-05-11T07:24:48.727Z,99.90
2019-05-11T07:27:23.767Z,99.90
2019-05-11T07:29:53.636Z,99.90
2019-05-11T07:32:26.053Z,99.90
2019-05-11T07:34:57.652Z,99.90
2019-05-11T07:37:29.195Z,99.90
2019-05-11T07:40:03.712Z,99.90
2019-05-11T07:42:38.122Z,99.90
2019-05-11T07:45:11.131Z,99.90
2019-05-11T07:47:41.237Z,99.90
2019-05-11T07:50:15.092Z,99.90
2019-05-11T07:52:47.679Z,99.90
2019-05-11T07:55:28.235Z,99.90
2019-05-11T07:58:08.034Z,99.90
2019-05-11T08:00:42.763Z,99.90
2019-05-11T08:03:18.036Z,99.90
2019-05-11T08:05:48.845Z,99.90
2019-05-11T08:08:24.523Z,99.90
2019-05-11T08:10:58.474Z,99.90
2019-05-11T08:13:30.087Z,99.90
2019-05-11T08:16:00.566Z,99.90
2019-05-11T08:18:34.960Z,99.90
2019-05-11T08:21:08.681Z,99.90
2019-05-11T08:23:38.611Z,99.90
2019-05-11T08:26:12.291Z,99.90
2019-05-11T08:28:48.642Z,99.90
2019-05-11T08:31:21.668Z,99.90
2019-05-11T08:33:52.070Z,99.90
2019-05-11T08:36:22.047Z,99.90
2019-05-11T08:38:53.031Z,99.90
2019-05-11T08:41:27.988Z,99.90
2019-05-11T08:44:14.007Z,99.90
2019-05-11T08:46:47.787Z,99.90
2019-05-11T08:49:18.793Z,99.90
2019-05-11T08:51:51.210Z,99.90
2019-05-11T08:54:28.978Z,99.90
2019-05-11T08:56:59.242Z,99.90
2019-05-11T08:59:29.750Z,99.90
2019-05-11T09:02:00.345Z,99.90
2019-05-11T09:04:31.619Z,99.90
2019-05-11T09:07:02.221Z,99.90
2019-05-11T09:09:42.823Z,99.90
2019-05-11T09:12:13.881Z,99.90
2019-05-11T09:14:49.888Z,99.90
2019-05-11T09:17:21.692Z,99.90
2019-05-11T09:19:54.688Z,99.90
2019-05-11T09:22:31.332Z,99.90
2019-05-11T09:25:03.272Z,99.90
2019-05-11T09:27:34.429Z,99.90
2019-05-11T09:30:09.221Z,99.90
2019-05-11T09:32:44.848Z,99.90
2019-05-11T09:35:19.169Z,99.90
2019-05-11T09:37:49.540Z,99.90
2019-05-11T09:40:20.947Z,99.90
2019-05-11T09:42:54.316Z,99.90
2019-05-11T09:45:27.663Z,99.90
2019-05-11T09:47:58.212Z,99.90
2019-05-11T09:50:31.375Z,99.90
2019-05-11T09:53:01.440Z,99.90
2019-05-11T09:55:35.169Z,99.90
2019-05-11T09:58:08.337Z,99.90
2019-05-11T10:00:42.684Z,99.90
2019-05-11T10:03:18.152Z,99.90
2019-05-11T10:05:48.774Z,99.90
2019-05-11T10:08:21.096Z,99.90
2019-05-11T10:10:58.055Z,99.90
2019-05-11T10:13:29.838Z,99.90
2019-05-11T10:16:10.188Z,99.90
2019-05-11T10:18:50.313Z,99.90
2019-05-11T10:21:20.249Z,99.90
2019-05-11T10:23:50.993Z,99.90
2019-05-11T10:26:23.462Z,99.90
2019-05-11T10:28:53.948Z,99.90
2019-05-11T10:31:28.471Z,99.90
2019-05-11T10:34:05.426Z,99.90
2019-05-11T10:36:43.203Z,99.90
2019-05-11T10:39:22.858Z,99.90
2019-05-11T10:41:54.951Z,99.90
2019-05-11T10:44:25.027Z,99.90
2019-05-11T10:46:55.478Z,99.90
2019-05-11T10:49:25.215Z,99.90
2019-05-11T10:51:55.404Z,99.90
2019-05-11T10:54:31.581Z,99.90
2019-05-11T10:57:02.514Z,99.90
2019-05-11T10:59:38.912Z,99.90
2019-05-11T11:02:14.872Z,99.90
2019-05-11T11:04:51.687Z,99.90
2019-05-11T11:07:28.908Z,99.90
2019-05-11T11:10:00.755Z,99.90
2019-05-11T11:12:30.799Z,99.90
2019-05-11T11:15:03.440Z,99.90
2019-05-11T11:17:39.104Z,99.90
2019-05-11T11:20:12.065Z,99.90
2019-05-11T11:22:44.363Z,99.90
2019-05-11T11:25:18.524Z,99.90
2019-05-11T11:27:50.396Z,99.90
2019-05-11T11:30:21.147Z,99.90
2019-05-11T11:32:51.501Z,99.90
2019-05-11T11:35:21.448Z,99.90
2019-05-11T11:37:51.502Z,99.90
2019-05-11T11:40:21.412Z,99.90
2019-05-11T11:42:52.724Z,99.90
2019-05-11T11:45:25.578Z,99.90
2019-05-11T11:47:57.971Z,99.90
2019-05-11T11:50:37.714Z,99.90
2019-05-11T11:53:10.421Z,99.90
2019-05-11T11:55:44.263Z,99.90
2019-05-11T11:58:23.617Z,99.90
2019-05-11T12:00:53.964Z,99.90
2019-05-11T12:03:27.728Z,99.90
2019-05-11T12:06:03.935Z,99.90
2019-05-11T12:08:34.044Z,99.90
2019-05-11T12:11:07.765Z,99.90
2019-05-11T12:13:38.411Z,99.90
2019-05-11T12:16:10.329Z,99.90
2019-05-11T12:18:44.085Z,99.90
2019-05-11T12:21:24.494Z,99.90
2019-05-11T12:23:58.544Z,99.90
2019-05-11T12:26:31.651Z,99.90
2019-05-11T12:29:02.821Z,99.90
2019-05-11T12:31:37.885Z,99.90
2019-05-11T12:34:13.395Z,99.90
2019-05-11T12:36:48.055Z,94.70
2019-05-11T12:39:19.276Z,94.20
2019-05-11T12:41:54.896Z,92.40
2019-05-11T12:44:28.432Z,96.80
2019-05-11T12:47:02.739Z,99.90
2019-05-11T12:49:33.450Z,99.90
2019-05-11T12:52:09.765Z,99.90
2019-05-11T12:54:44.331Z,99.90
2019-05-11T12:57:21.057Z,99.30
2019-05-11T12:59:54.806Z,98.60
2019-05-11T13:02:28.087Z,95.70
2019-05-11T13:05:00.028Z,95.00
2019-05-11T13:07:31.124Z,90.10
2019-05-11T13:10:02.541Z,75.00
2019-05-11T13:13:02.647Z,71.90
2019-05-11T13:15:38.506Z,67.50
2019-05-11T13:18:08.399Z,65.60
2019-05-11T13:20:48.045Z,69.60
2019-05-11T13:23:19.171Z,64.10
2019-05-11T13:25:54.672Z,67.50
2019-05-11T13:28:28.429Z,77.40
2019-05-11T13:31:00.539Z,87.70
2019-05-11T13:33:35.107Z,99.10
2019-05-11T13:36:05.144Z,99.90
2019-05-11T13:38:38.791Z,99.90
2019-05-11T13:41:34.214Z,99.90
2019-05-11T13:44:08.032Z,99.90
2019-05-11T13:46:44.178Z,99.90
2019-05-11T13:49:22.267Z,97.90
2019-05-11T13:52:13.283Z,93.20
2019-05-11T13:54:50.086Z,85.60
2019-05-11T13:57:21.801Z,90.00
2019-05-11T13:59:52.443Z,92.10
2019-05-11T14:02:34.162Z,93.70
2019-05-11T14:05:18.072Z,92.40
2019-05-11T14:07:52.693Z,92.50
2019-05-11T14:10:28.236Z,96.20
2019-05-11T14:12:59.784Z,94.80
2019-05-11T14:15:30.898Z,92.60
2019-05-11T14:18:08.380Z,92.10
2019-05-11T14:20:55.064Z,90.30
2019-05-11T14:23:29.124Z,91.70
2019-05-11T14:26:14.239Z,94.20
2019-05-11T14:28:48.189Z,95.90
2019-05-11T14:31:43.297Z,95.00
2019-05-11T14:34:28.140Z,93.50
2019-05-11T14:37:18.002Z,92.20
2019-05-11T14:40:17.677Z,87.10
2019-05-11T14:43:00.951Z,90.00
2019-05-11T14:45:42.819Z,91.00
2019-05-11T14:48:34.300Z,89.10
2019-05-11T14:51:08.521Z,91.40
2019-05-11T14:53:40.219Z,93.70
2019-05-11T14:56:19.720Z,90.90
2019-05-11T14:58:53.178Z,92.30
2019-05-11T15:01:25.982Z,93.10
2019-05-11T15:04:12.206Z,90.60
2019-05-11T15:06:43.798Z,90.80
2019-05-11T15:09:14.867Z,85.80
2019-05-11T15:11:47.984Z,81.00
2019-05-11T15:14:30.645Z,85.10
2019-05-11T15:17:22.013Z,82.60
2019-05-11T15:20:12.697Z,91.50
2019-05-11T15:23:34.946Z,89.50
2019-05-11T15:27:01.549Z,92.90
2019-05-11T15:30:07.854Z,87.00
2019-05-11T15:33:07.561Z,84.50
2019-05-11T15:35:42.588Z,90.00
2019-05-11T15:38:15.172Z,91.20
2019-05-11T15:40:49.104Z,89.90
2019-05-11T15:43:19.250Z,81.00
2019-05-11T15:45:52.008Z,90.90
2019-05-11T15:48:25.910Z,87.70
2019-05-11T15:50:57.826Z,83.90
2019-05-11T15:53:28.296Z,80.40
2019-05-11T15:55:59.848Z,78.20
2019-05-11T15:58:40.174Z,77.60
2019-05-11T16:01:26.150Z,83.00
2019-05-11T16:04:21.624Z,88.20
2019-05-11T16:07:02.191Z,94.10
2019-05-11T16:09:57.815Z,87.60
2019-05-11T16:12:39.088Z,94.80
2019-05-11T16:15:20.266Z,96.20
2019-05-11T16:18:02.914Z,99.90
2019-05-11T16:20:34.338Z,99.90
2019-05-11T16:23:06.305Z,99.90
2019-05-11T16:25:44.966Z,99.90
2019-05-11T16:28:42.268Z,99.90
2019-05-11T16:31:14.160Z,99.90
2019-05-11T16:33:53.390Z,99.90
2019-05-11T16:36:49.534Z,99.90
2019-05-11T16:39:38.615Z,99.90
2019-05-11T16:42:14.704Z,99.90
2019-05-11T16:44:50.344Z,99.90
2019-05-11T16:47:25.412Z,99.90
2019-05-11T16:49:58.592Z,99.90
2019-05-11T16:52:43.154Z,99.90
2019-05-11T16:55:18.359Z,99.90
2019-05-11T16:57:59.694Z,99.90
2019-05-11T17:00:42.229Z,99.90
2019-05-11T17:03:34.464Z,99.90
2019-05-11T17:06:09.515Z,99.90
2019-05-11T17:08:40.582Z,99.90
2019-05-11T17:11:12.759Z,99.90
2019-05-11T17:13:45.613Z,99.90
2019-05-11T17:16:17.749Z,99.90
2019-05-11T17:18:48.352Z,99.80
2019-05-11T17:21:32.846Z,99.90
2019-05-11T17:24:07.489Z,99.90
2019-05-11T17:26:40.103Z,99.90
2019-05-11T17:29:12.600Z,99.90
2019-05-11T17:31:52.628Z,99.90
2019-05-11T17:34:33.838Z,99.90
2019-05-11T17:37:05.054Z,99.90
2019-05-11T17:39:40.258Z,99.90
2019-05-11T17:42:12.416Z,99.90
2019-05-11T17:44:43.567Z,99.90
2019-05-11T17:47:17.927Z,99.90
2019-05-11T17:50:00.110Z,99.70
2019-05-11T17:52:38.490Z,99.90
2019-05-11T17:55:38.167Z,99.70
2019-05-11T17:57:54.150Z,99.90
2019-05-11T18:00:28.353Z,99.90
2019-05-11T18:03:14.099Z,99.90
2019-05-11T18:05:45.203Z,99.90
2019-05-11T18:08:24.251Z,99.90
2019-05-11T18:10:58.654Z,99.90
2019-05-11T18:13:41.100Z,99.90
2019-05-11T18:16:11.961Z,99.90
2019-05-11T18:18:49.558Z,99.90
2019-05-11T18:21:39.340Z,99.90
2019-05-11T18:24:14.913Z,99.90
2019-05-11T18:26:58.928Z,99.90
2019-05-11T18:29:34.405Z,99.90
2019-05-11T18:32:11.021Z,99.90
2019-05-11T18:34:43.690Z,99.90
2019-05-11T18:37:21.250Z,99.90
2019-05-11T18:42:57.935Z,99.90
2019-05-11T18:45:41.763Z,99.90
2019-05-11T18:48:21.318Z,99.90
2019-05-11T18:50:56.185Z,99.90
2019-05-11T18:53:30.591Z,99.90
2019-05-11T18:56:24.652Z,99.90
2019-05-11T19:03:19.427Z,99.90
2019-05-11T19:16:14.130Z,99.90
2019-05-11T19:43:23.271Z,98.50
2019-05-11T19:54:24.331Z,99.50
2019-05-11T20:13:33.267Z,99.90
2019-05-11T20:23:29.292Z,99.90
2019-05-11T20:26:18.050Z,99.90
2019-05-11T20:29:31.165Z,99.90
2019-05-11T20:32:31.320Z,99.90
2019-05-11T21:14:40.811Z,97.50
2019-05-11T21:17:37.081Z,96.40
2019-05-11T21:21:19.772Z,97.70
2019-05-11T21:24:50.105Z,98.40
2019-05-11T21:31:31.081Z,97.90
2019-05-11T21:38:35.429Z,98.40
2019-05-11T21:42:04.372Z,99.10
2019-05-11T22:02:43.506Z,99.90
2019-05-11T22:17:27.907Z,99.90
2019-05-11T22:23:53.398Z,99.90
2019-05-11T22:27:01.096Z,99.90
2019-05-11T22:30:08.135Z,99.90
2019-05-11T22:33:31.298Z,99.90
2019-05-11T22:37:05.623Z,99.90
2019-05-11T22:40:03.595Z,99.90
2019-05-11T22:42:53.859Z,99.90
2019-05-11T22:45:51.763Z,99.90
2019-05-11T22:49:00.995Z,99.90
2019-05-11T22:52:14.570Z,99.90
2019-05-11T22:55:12.003Z,99.90
2019-05-11T22:57:58.142Z,99.90
2019-05-11T23:04:35.305Z,99.90
2019-05-11T23:11:28.359Z,99.90
2019-05-11T23:14:58.674Z,99.90
2019-05-11T23:18:13.009Z,99.90
2019-05-11T23:25:12.909Z,99.90
2019-05-11T23:59:18.791Z,99.90
